createdAt,value
2022-09-28T00:01:41.281Z,13.13
2022-09-28T00:06:45.378Z,11.77
2022-09-28T00:11:50.332Z,11.32
2022-09-28T00:16:53.984Z,10.30
2022-09-28T00:21:57.642Z,11.50
2022-09-28T00:27:03.973Z,13.02
2022-09-28T00:32:11.612Z,13.10
2022-09-28T00:37:16.155Z,14.33
2022-09-28T00:42:23.593Z,14.05
2022-09-28T00:47:49.742Z,15.17
2022-09-28T00:52:57.799Z,15.35
2022-09-28T00:58:06.632Z,16.65
2022-09-28T01:03:11.026Z,16.05
2022-09-28T01:08:16.096Z,16.05
2022-09-28T01:13:22.712Z,16.25
2022-09-28T01:18:35.768Z,17.70
2022-09-28T01:24:10.310Z,16.95
2022-09-28T01:29:23.244Z,16.70
2022-09-28T01:34:33.432Z,18.05
2022-09-28T01:39:41.160Z,15.75
2022-09-28T01:44:50.559Z,14.85
2022-09-28T01:50:00.409Z,12.85
2022-09-28T01:55:12.069Z,12.30
2022-09-28T02:00:20.601Z,10.13
2022-09-28T02:05:31.282Z,8.35
2022-09-28T02:10:41.060Z,7.03
2022-09-28T02:15:54.026Z,6.87
2022-09-28T02:21:02.356Z,6.00
2022-09-28T02:31:14.020Z,4.65
2022-09-28T02:36:18.095Z,4.40
2022-09-28T02:41:33.774Z,3.87
2022-09-28T02:46:48.199Z,4.40
2022-09-28T02:52:23.683Z,3.90
2022-09-28T02:57:39.431Z,3.65
2022-09-28T03:02:59.419Z,3.37
2022-09-28T03:08:08.391Z,2.35
2022-09-28T03:13:14.303Z,2.35
2022-09-28T03:18:19.402Z,1.83
2022-09-28T03:23:25.292Z,1.85
2022-09-28T03:28:29.848Z,1.70
2022-09-28T03:33:35.668Z,1.40
2022-09-28T03:38:39.870Z,1.33
2022-09-28T03:43:43.877Z,1.02
2022-09-28T03:48:50.525Z,1.30
2022-09-28T03:53:54.275Z,0.80
2022-09-28T03:58:57.893Z,0.82
2022-09-28T04:04:03.772Z,1.10
2022-09-28T04:09:07.904Z,0.82
2022-09-28T04:14:11.736Z,1.25
2022-09-28T04:19:17.143Z,0.77
2022-09-28T04:24:21.729Z,0.98
2022-09-28T04:29:25.695Z,0.70
2022-09-28T04:34:35.402Z,0.70
2022-09-28T04:39:44.986Z,0.65
2022-09-28T04:44:53.047Z,0.80
2022-09-28T04:49:58.023Z,0.90
2022-09-28T04:55:01.720Z,1.60
2022-09-28T05:00:06.514Z,0.88
2022-09-28T05:05:12.117Z,1.20
2022-09-28T05:10:16.141Z,1.83
2022-09-28T05:15:19.947Z,4.37
2022-09-28T05:20:25.834Z,3.60
2022-09-28T05:25:29.630Z,3.95
2022-09-28T05:30:38.315Z,2.05
2022-09-28T05:35:43.632Z,2.22
2022-09-28T05:40:47.292Z,2.37
2022-09-28T05:45:55.322Z,4.40
2022-09-28T05:56:04.954Z,2.10
2022-09-28T06:01:09.201Z,3.17
2022-09-28T06:06:15.589Z,2.30
2022-09-28T06:11:20.380Z,2.10
2022-09-28T06:16:24.709Z,3.25
2022-09-28T06:21:29.857Z,3.20
2022-09-28T06:26:33.580Z,2.75
2022-09-28T06:31:37.330Z,2.83
2022-09-28T06:36:42.770Z,2.75
2022-09-28T06:41:46.725Z,2.70
2022-09-28T06:52:16.727Z,1.85
2022-09-28T06:57:25.113Z,2.08
2022-09-28T07:02:28.968Z,2.20
2022-09-28T07:07:35.576Z,2.05
2022-09-28T07:12:39.864Z,2.70
2022-09-28T07:17:57.637Z,2.80
2022-09-28T07:23:18.091Z,3.92
2022-09-28T07:28:35.953Z,3.70
2022-09-28T07:33:39.941Z,4.32
2022-09-28T07:38:45.959Z,3.83
2022-09-28T07:43:50.105Z,4.62
2022-09-28T07:48:54.426Z,5.50
2022-09-28T07:54:01.033Z,5.07
2022-09-28T07:59:06.857Z,4.72
2022-09-28T08:04:15.560Z,5.18
2022-09-28T08:09:21.174Z,5.62
2022-09-28T08:14:28.589Z,5.18
2022-09-28T08:19:53.270Z,4.35
2022-09-28T08:24:58.317Z,5.37
2022-09-28T08:30:02.096Z,4.57
2022-09-28T08:35:08.000Z,4.50
2022-09-28T08:40:24.685Z,3.60
2022-09-28T08:45:33.661Z,2.65
2022-09-28T08:50:43.473Z,3.42
2022-09-28T08:55:51.223Z,2.92
2022-09-28T09:00:55.576Z,3.37
2022-09-28T09:06:06.911Z,2.05
2022-09-28T09:11:28.675Z,2.40
2022-09-28T09:16:41.291Z,2.00
2022-09-28T09:21:51.538Z,1.92
2022-09-28T09:27:06.574Z,1.40
2022-09-28T09:32:21.436Z,1.83
2022-09-28T09:37:46.317Z,1.30
2022-09-28T09:43:05.305Z,1.33
2022-09-28T09:48:19.041Z,2.05
2022-09-28T09:53:28.843Z,1.35
2022-09-28T09:58:37.459Z,1.10
2022-09-28T10:55:36.988Z,0.90
2022-09-28T11:05:55.898Z,0.88
2022-09-28T11:11:06.793Z,0.93
2022-09-28T11:23:02.636Z,0.80
2022-09-28T11:28:23.411Z,0.88
2022-09-28T11:33:31.805Z,0.60
2022-09-28T11:38:42.252Z,1.15
2022-09-28T11:44:25.441Z,0.60
2022-09-28T11:50:01.688Z,0.68
2022-09-28T11:55:15.589Z,0.60
2022-09-28T12:00:23.114Z,0.60
2022-09-28T12:05:31.515Z,0.77
2022-09-28T12:10:44.668Z,0.80
2022-09-28T12:16:23.433Z,0.50
2022-09-28T12:21:33.267Z,0.50
2022-09-28T12:26:43.185Z,0.43
2022-09-28T12:31:56.940Z,0.43
2022-09-28T12:37:13.140Z,0.50
2022-09-28T12:42:32.238Z,0.32
2022-09-28T12:48:01.631Z,0.43
2022-09-28T12:53:24.303Z,0.77
2022-09-28T12:58:41.705Z,0.30
2022-09-28T13:04:07.583Z,0.40
2022-09-28T13:09:29.628Z,0.80
2022-09-28T13:15:14.212Z,0.40
2022-09-28T13:32:40.662Z,1.10
2022-09-28T13:38:09.662Z,0.85
2022-09-28T13:43:28.210Z,0.35
2022-09-28T13:48:44.931Z,0.30
2022-09-28T13:54:15.711Z,0.40
2022-09-28T13:59:27.029Z,0.35
2022-09-28T14:04:55.443Z,0.60
2022-09-28T14:10:21.187Z,0.30
2022-09-28T14:15:45.164Z,0.40
2022-09-28T14:20:59.492Z,0.50
2022-09-28T14:26:21.945Z,0.30
2022-09-28T14:31:29.390Z,0.50
2022-09-28T14:36:59.461Z,0.30
2022-09-28T14:42:10.363Z,0.40
2022-09-28T14:47:35.871Z,0.30
2022-09-28T14:52:43.912Z,0.30
2022-09-28T14:57:54.294Z,0.50
2022-09-28T15:03:03.615Z,0.68
2022-09-28T15:08:08.004Z,0.65
2022-09-28T15:13:20.747Z,0.50
2022-09-28T15:19:05.795Z,0.65
2022-09-28T15:24:26.010Z,0.73
2022-09-28T15:29:31.695Z,0.40
2022-09-28T15:34:54.680Z,0.43
2022-09-28T15:40:00.214Z,0.25
2022-09-28T15:45:22.153Z,0.40
2022-09-28T15:50:29.919Z,0.32
2022-09-28T15:55:35.583Z,0.30
2022-09-28T16:00:40.317Z,0.30
2022-09-28T16:05:47.996Z,0.30
2022-09-28T16:10:56.511Z,0.50
2022-09-28T16:16:01.323Z,0.40
2022-09-28T16:21:32.633Z,0.57
2022-09-28T16:26:39.064Z,0.50
2022-09-28T16:31:51.431Z,0.52
2022-09-28T16:36:56.615Z,0.60
2022-09-28T16:42:03.751Z,0.50
2022-09-28T16:47:07.596Z,0.40
2022-09-28T16:52:13.382Z,0.47
2022-09-28T16:57:17.430Z,0.32
2022-09-28T17:08:01.540Z,0.50
2022-09-28T17:13:05.446Z,0.50
2022-09-28T17:18:10.711Z,0.60
2022-09-28T17:23:16.251Z,1.70
2022-09-28T17:28:25.041Z,2.17
2022-09-28T17:33:29.278Z,4.37
2022-09-28T17:38:35.171Z,2.15
2022-09-28T17:43:41.215Z,1.50
2022-09-28T17:48:46.662Z,2.22
2022-09-28T17:53:52.671Z,2.80
2022-09-28T17:58:58.308Z,2.50
2022-09-28T18:04:02.632Z,4.05
2022-09-28T18:09:08.875Z,2.55
2022-09-28T18:14:12.600Z,3.00
2022-09-28T18:19:16.300Z,2.28
2022-09-28T18:24:21.440Z,2.78
2022-09-28T18:29:25.304Z,2.75
2022-09-28T18:34:29.065Z,2.37
2022-09-28T18:39:36.298Z,4.97
2022-09-28T18:44:40.226Z,4.85
2022-09-28T18:49:46.695Z,7.85
2022-09-28T18:54:52.147Z,11.40
2022-09-28T18:59:55.882Z,12.60
2022-09-28T19:04:59.796Z,10.25
2022-09-28T19:10:05.817Z,10.57
2022-09-28T19:15:10.030Z,9.85
2022-09-28T19:20:13.848Z,10.90
2022-09-28T19:25:19.139Z,20.15
2022-09-28T19:30:22.899Z,22.15
2022-09-28T19:35:26.633Z,14.65
2022-09-28T19:40:31.889Z,10.45
2022-09-28T19:45:37.080Z,9.85
2022-09-28T19:50:41.695Z,8.32
2022-09-28T19:55:52.756Z,6.72
2022-09-28T20:00:56.545Z,7.32
2022-09-28T20:06:01.730Z,6.93
2022-09-28T20:11:07.011Z,9.23
2022-09-28T20:16:12.665Z,8.00
2022-09-28T20:21:18.438Z,6.30
2022-09-28T20:26:24.779Z,7.45
2022-09-28T20:31:28.589Z,6.55
2022-09-28T20:36:32.829Z,6.87
2022-09-28T20:41:37.919Z,6.35
2022-09-28T20:46:43.736Z,6.47
2022-09-28T20:51:47.512Z,6.80
2022-09-28T20:56:52.648Z,7.00
2022-09-28T21:01:56.410Z,7.00
2022-09-28T21:07:00.154Z,8.27
2022-09-28T21:12:05.381Z,8.10
2022-09-28T21:17:09.094Z,8.13
2022-09-28T21:22:13.010Z,7.12
2022-09-28T21:27:18.016Z,7.12
2022-09-28T21:32:23.255Z,6.53
2022-09-28T21:37:27.005Z,7.07
2022-09-28T21:42:32.076Z,7.05
2022-09-28T21:47:35.860Z,6.82
2022-09-28T21:52:39.525Z,6.43
2022-09-28T21:57:46.645Z,7.00
2022-09-28T22:02:51.013Z,6.37
2022-09-28T22:07:55.124Z,7.03
2022-09-28T22:13:00.143Z,6.00
2022-09-28T22:18:03.888Z,6.22
2022-09-28T22:23:07.583Z,6.95
2022-09-28T22:28:12.700Z,6.40
2022-09-28T22:33:16.365Z,7.72
2022-09-28T22:38:20.863Z,6.85
2022-09-28T22:43:27.099Z,6.53
2022-09-28T22:48:30.981Z,6.90
2022-09-28T22:53:36.036Z,6.75
2022-09-28T22:58:41.103Z,7.15
2022-09-28T23:03:45.436Z,7.05
2022-09-28T23:08:51.418Z,7.10
2022-09-28T23:13:58.183Z,7.03
2022-09-28T23:19:01.905Z,8.07
2022-09-28T23:24:05.702Z,7.05
2022-09-28T23:29:12.698Z,7.55
2022-09-28T23:34:16.410Z,8.05
2022-09-28T23:39:20.392Z,7.45
2022-09-28T23:44:25.567Z,7.12
2022-09-28T23:49:29.799Z,7.45
2022-09-28T23:54:33.849Z,6.90
2022-09-28T23:59:38.913Z,7.05
